Time;durP1;ratioP1;P1;durP2;ratioP2;P2;SDS_P1;SDS_P2;PMS_P1;PMS_P2;Temp;Humidity;BMP_temperature;BMP_pressure;BME280_temperature;BME280_humidity;BME280_pressure;Samples;Min_cycle;Max_cycle;Signal;HPM_P1;HPM_P2
2022/01/08 00:01:09;;;;;;;10.13;1.88;;;;;;;1.47;100.00;100897.72;5116171;28;20038;-51
2022/01/08 00:03:34;;;;;;;7.60;2.22;;;;;;;1.10;100.00;100827.53;5116270;28;20110;-54
2022/01/08 00:05:59;;;;;;;12.02;2.10;;;;;;;1.26;100.00;100856.09;5116033;28;20062;-49
2022/01/08 00:08:25;;;;;;;7.97;1.90;;;;;;;1.09;100.00;100849.09;5115903;28;20035;-48
2022/01/08 00:10:52;;;;;;;9.77;1.90;;;;;;;1.62;100.00;100922.03;5097668;28;20027;-52
2022/01/08 00:13:18;;;;;;;13.85;1.92;;;;;;;1.76;100.00;100940.25;5115975;28;20046;-50
2022/01/08 00:15:43;;;;;;;9.55;2.03;;;;;;;1.71;100.00;100926.38;5115647;28;20032;-48
2022/01/08 00:18:08;;;;;;;5.18;1.73;;;;;;;1.76;100.00;100929.00;5116055;28;20031;-49
2022/01/08 00:20:35;;;;;;;7.93;1.92;;;;;;;1.77;100.00;100939.41;5115866;28;20478;-52
2022/01/08 00:23:00;;;;;;;7.65;1.90;;;;;;;1.26;100.00;100854.38;5115702;28;20080;-50
2022/01/08 00:25:26;;;;;;;8.77;2.10;;;;;;;1.66;100.00;100952.28;5115627;28;20115;-50
2022/01/08 00:27:51;;;;;;;5.80;2.13;;;;;;;1.65;100.00;100955.78;5115540;28;20032;-48
2022/01/08 00:30:17;;;;;;;11.63;2.22;;;;;;;1.65;100.00;100975.66;5115579;28;20036;-51
2022/01/08 00:32:42;;;;;;;7.05;1.80;;;;;;;1.63;100.00;100954.03;5097305;28;20032;-50
2022/01/08 00:35:08;;;;;;;6.22;1.73;;;;;;;1.62;100.00;100962.66;5115592;28;20043;-51
2022/01/08 00:37:37;;;;;;;9.05;2.58;;;;;;;1.56;100.00;100953.13;5112446;28;20109;-49
2022/01/08 00:40:11;;;;;;;10.13;2.03;;;;;;;1.48;100.00;100944.44;5097411;28;20058;-47
2022/01/08 00:42:38;;;;;;;7.40;1.98;;;;;;;1.38;100.00;100897.66;5114272;28;20027;-51
2022/01/08 00:45:05;;;;;;;8.77;2.42;;;;;;;1.55;100.00;100925.44;5114196;28;20023;-50
2022/01/08 00:47:30;;;;;;;9.02;2.00;;;;;;;1.59;100.00;100949.66;5097029;28;20027;-56
2022/01/08 00:49:55;;;;;;;4.30;1.30;;;;;;;1.32;100.00;100890.72;5115183;28;20028;-49
2022/01/08 00:52:21;;;;;;;8.95;1.73;;;;;;;1.42;100.00;100905.50;5115081;28;20032;-48
2022/01/08 00:54:46;;;;;;;7.78;2.10;;;;;;;1.48;100.00;100928.88;5115107;28;20038;-52
2022/01/08 00:57:12;;;;;;;6.38;1.85;;;;;;;1.53;100.00;100940.13;5114088;28;20483;-48
2022/01/08 00:59:37;;;;;;;8.07;2.30;;;;;;;1.50;100.00;100940.09;5113788;28;20470;-51
2022/01/08 01:02:03;;;;;;;8.48;1.73;;;;;;;1.49;100.00;100940.97;5114743;28;20114;-52
2022/01/08 01:04:28;;;;;;;8.20;2.25;;;;;;;0.91;100.00;100858.47;5114914;28;20115;-49
2022/01/08 01:06:54;;;;;;;6.38;1.50;;;;;;;0.87;100.00;100861.91;5114788;28;20110;-49
2022/01/08 01:09:19;;;;;;;11.85;2.15;;;;;;;0.81;100.00;100854.97;5114675;28;20023;-51
2022/01/08 01:11:45;;;;;;;10.80;2.15;;;;;;;0.80;100.00;100873.09;5114751;28;20043;-50
2022/01/08 01:14:10;;;;;;;8.25;1.92;;;;;;;1.31;100.00;100947.78;5114558;28;20028;-49
2022/01/08 01:16:35;;;;;;;9.68;2.33;;;;;;;0.75;100.00;100841.97;5114958;28;20161;-48
2022/01/08 01:19:03;;;;;;;12.60;1.67;;;;;;;1.01;100.00;100881.03;5114707;28;20027;-49
2022/01/08 01:21:28;;;;;;;6.45;1.40;;;;;;;1.28;100.00;100933.06;5113385;28;20036;-48
2022/01/08 01:23:55;;;;;;;9.90;2.17;;;;;;;1.29;100.00;100936.50;5113102;28;20032;-48
2022/01/08 01:26:24;;;;;;;7.32;2.03;;;;;;;1.23;100.00;100939.94;5114522;28;20023;-49
2022/01/08 01:47:58;;;;;;;9.30;1.85;;;;;;;1.33;100.00;100953.81;5114296;28;20081;-48
2022/01/08 01:50:23;;;;;;;11.63;2.55;;;;;;;1.36;100.00;100966.81;5114051;28;20063;-48
2022/01/08 01:52:49;;;;;;;8.82;1.85;;;;;;;1.44;100.00;100962.53;5113814;28;20037;-51
2022/01/08 01:55:14;;;;;;;9.27;2.33;;;;;;;1.38;100.00;100949.53;5112349;28;20068;-51
2022/01/08 01:57:40;;;;;;;8.77;2.40;;;;;;;1.50;100.00;100970.38;5114085;28;20024;-50
2022/01/08 02:00:07;;;;;;;6.55;2.38;;;;;;;1.54;100.00;100967.81;5112744;28;20024;-48
2022/01/08 02:02:32;;;;;;;5.72;2.05;;;;;;;1.27;100.00;100918.34;5112455;28;20051;-49
2022/01/08 02:04:57;;;;;;;4.65;1.50;;;;;;;1.15;100.00;100879.38;5112387;28;20482;-49
2022/01/08 02:07:26;;;;;;;5.78;1.83;;;;;;;1.27;100.00;100912.28;5112528;28;20057;-50
2022/01/08 02:09:53;;;;;;;10.73;2.20;;;;;;;1.69;100.00;100982.59;5113943;28;20054;-49
2022/01/08 02:12:20;;;;;;;6.82;2.00;;;;;;;1.75;100.00;100968.78;5113470;28;20039;-50
2022/01/08 02:14:46;;;;;;;7.53;2.08;;;;;;;1.80;100.00;100949.78;5113486;28;20434;-51
2022/01/08 02:17:12;;;;;;;7.70;1.95;;;;;;;1.92;100.00;100957.63;5112384;28;20131;-47
2022/01/08 02:19:38;;;;;;;13.85;1.90;;;;;;;2.07;100.00;100973.25;5112384;28;20073;-48
2022/01/08 02:22:05;;;;;;;6.80;2.15;;;;;;;2.00;100.00;100957.66;5112206;28;20026;-50
2022/01/08 02:24:33;;;;;;;6.00;2.15;;;;;;;1.97;100.00;100953.31;5113277;28;20039;-48
2022/01/08 02:26:58;;;;;;;10.15;2.03;;;;;;;1.63;100.00;100894.34;5112641;28;20058;-50
2022/01/08 02:29:24;;;;;;;6.85;2.53;;;;;;;2.10;100.00;100964.63;5113119;28;20099;-49
2022/01/08 02:31:59;;;;;;;7.65;2.08;;;;;;;2.17;100.00;100980.22;5113489;28;20046;-48
2022/01/08 02:34:26;;;;;;;8.52;2.28;;;;;;;1.67;100.00;100883.97;5113154;28;20028;-51
2022/01/08 02:36:52;;;;;;;9.35;2.58;;;;;;;1.62;100.00;100870.13;5113162;28;20052;-49
2022/01/08 02:39:18;;;;;;;7.30;2.13;;;;;;;2.18;100.00;100960.34;5113131;28;20542;-48
2022/01/08 02:41:43;;;;;;;12.32;3.00;;;;;;;1.69;100.00;100874.47;5113090;28;20027;-49
2022/01/08 02:44:09;;;;;;;7.50;1.83;;;;;;;1.63;100.00;100886.56;5113345;28;20032;-49
2022/01/08 02:46:37;;;;;;;7.93;2.00;;;;;;;2.07;100.00;100972.41;5112173;28;20062;-48
2022/01/08 02:49:04;;;;;;;12.88;1.85;;;;;;;2.02;100.00;100963.72;5094658;28;20126;-50
2022/01/08 02:51:31;;;;;;;8.70;1.85;;;;;;;1.79;100.00;100935.06;5112884;28;20031;-49
2022/01/08 02:53:56;;;;;;;9.73;2.00;;;;;;;1.80;100.00;100964.50;5113170;28;20032;-51
2022/01/08 02:56:21;;;;;;;11.32;1.77;;;;;;;1.36;100.00;100900.25;5112737;28;20028;-49
2022/01/08 02:58:47;;;;;;;12.98;2.20;;;;;;;1.75;100.00;100954.09;5094916;28;20036;-49
2022/01/08 03:01:12;;;;;;;7.07;1.65;;;;;;;1.79;100.00;100952.38;5112999;28;20028;-48
2022/01/08 03:03:37;;;;;;;7.65;1.80;;;;;;;1.31;100.00;100865.66;5094728;28;20420;-48
2022/01/08 03:06:03;;;;;;;7.88;1.98;;;;;;;1.47;100.00;100900.31;5112823;28;20072;-51
2022/01/08 03:08:28;;;;;;;6.25;1.90;;;;;;;1.78;100.00;100954.09;5112956;28;20039;-52
2022/01/08 03:10:54;;;;;;;10.55;2.08;;;;;;;1.70;100.00;100948.00;5094947;28;20042;-51
2022/01/08 03:13:19;;;;;;;9.05;1.85;;;;;;;1.79;100.00;100945.44;5113119;28;20039;-49
2022/01/08 03:15:45;;;;;;;9.43;2.05;;;;;;;1.33;100.00;100870.84;5094886;28;20191;-49
2022/01/08 03:18:10;;;;;;;8.27;2.28;;;;;;;1.68;100.00;100931.56;5112940;28;20027;-50
2022/01/08 03:20:44;;;;;;;10.68;2.10;;;;;;;1.72;100.00;100967.06;5112454;28;20122;-48
2022/01/08 03:23:14;;;;;;;10.32;1.92;;;;;;;1.79;100.00;100948.03;5112857;28;20046;-48
2022/01/08 03:25:39;;;;;;;9.65;2.22;;;;;;;1.47;100.00;100880.44;5112744;28;20118;-50
2022/01/08 03:28:04;;;;;;;6.03;1.65;;;;;;;1.89;100.00;100959.34;5112703;28;20123;-50
2022/01/08 03:30:30;;;;;;;6.65;2.08;;;;;;;1.53;100.00;100885.66;5094403;28;20063;-50
2022/01/08 03:32:55;;;;;;;10.23;2.10;;;;;;;1.48;100.00;100878.72;5112383;28;20036;-48
2022/01/08 03:35:21;;;;;;;7.60;1.92;;;;;;;1.56;100.00;100890.84;5112441;28;20028;-50
2022/01/08 03:37:47;;;;;;;5.90;1.52;;;;;;;1.90;100.00;100946.34;5112599;28;20036;-52
2022/01/08 03:40:13;;;;;;;3.65;1.38;;;;;;;1.92;100.00;100951.56;5094335;28;20034;-50
2022/01/08 03:42:38;;;;;;;3.92;1.60;;;;;;;1.82;100.00;100918.63;5094230;28;20028;-51
2022/01/08 03:45:04;;;;;;;7.78;1.85;;;;;;;1.48;100.00;100871.81;5112351;28;20034;-48
2022/01/08 03:47:52;;;;;;;7.30;1.42;;;;;;;1.81;100.00;100930.75;5112341;28;20028;-52
2022/01/08 03:50:15;;;;;;;5.57;1.25;;;;;;;1.87;100.00;100940.31;5112188;28;20044;-50
2022/01/08 03:52:40;;;;;;;7.55;1.75;;;;;;;1.42;100.00;100873.50;5112234;28;20069;-50
2022/01/08 03:55:06;;;;;;;5.80;1.85;;;;;;;1.45;100.00;100882.16;5112549;28;20047;-51
2022/01/08 03:57:32;;;;;;;4.90;1.70;;;;;;;1.34;100.00;100870.00;5095618;28;20031;-50
2022/01/08 03:59:57;;;;;;;7.78;1.80;;;;;;;1.75;100.00;100945.44;5116105;28;20039;-51
2022/01/08 04:02:22;;;;;;;6.45;1.42;;;;;;;1.30;100.00;100892.44;5098164;28;20046;-50
2022/01/08 04:04:48;;;;;;;6.20;1.45;;;;;;;1.62;100.00;100952.28;5116227;28;20024;-48
2022/01/08 04:07:14;;;;;;;5.50;2.00;;;;;;;1.52;100.00;100945.28;5116128;28;20032;-48
2022/01/08 04:09:39;;;;;;;8.68;2.10;;;;;;;1.35;100.00;100927.03;5116144;28;20140;-49
2022/01/08 04:12:06;;;;;;;5.30;2.47;;;;;;;1.28;100.00;100932.19;5115934;28;20494;-53
2022/01/08 04:14:42;;;;;;;7.72;2.33;;;;;;;1.31;100.00;100950.38;5115963;28;20030;-49
2022/01/08 04:17:08;;;;;;;6.75;2.40;;;;;;;0.70;100.00;100866.13;5115593;28;20138;-50
2022/01/08 04:19:33;;;;;;;11.50;2.35;;;;;;;1.14;100.00;100956.28;5115728;28;20027;-52
2022/01/08 04:21:59;;;;;;;10.07;2.22;;;;;;;0.58;100.00;100865.13;5097243;28;20118;-54
2022/01/08 04:24:25;;;;;;;9.98;2.30;;;;;;;1.10;100.00;100951.06;5115149;28;20035;-49
2022/01/08 04:26:50;;;;;;;8.05;2.40;;;;;;;1.19;100.00;100955.47;5115432;28;20038;-52
2022/01/08 04:29:15;;;;;;;14.02;2.67;;;;;;;1.05;100.00;100945.00;5115476;28;20467;-50
2022/01/08 04:31:41;;;;;;;5.93;2.10;;;;;;;1.08;100.00;100965.75;5115415;28;20546;-48
2022/01/08 04:34:06;;;;;;;10.32;2.08;;;;;;;0.91;100.00;100968.19;5097345;28;20759;-49
2022/01/08 04:36:31;;;;;;;7.35;2.33;;;;;;;0.89;100.00;100974.22;5115657;28;20062;-49
2022/01/08 04:38:57;;;;;;;10.65;2.58;;;;;;;0.75;100.00;100965.47;5115703;28;20039;-49
2022/01/08 04:41:22;;;;;;;12.63;2.80;;;;;;;0.66;100.00;100952.41;5115162;28;20043;-50
2022/01/08 04:43:48;;;;;;;6.65;2.33;;;;;;;0.74;100.00;100987.91;5115337;28;20028;-46
2022/01/08 04:46:14;;;;;;;8.20;2.00;;;;;;;0.71;100.00;100989.59;5115268;28;20085;-49
2022/01/08 04:48:39;;;;;;;3.38;1.80;;;;;;;0.67;100.00;100977.47;5115327;28;20613;-50
2022/01/08 04:51:05;;;;;;;5.45;1.80;;;;;;;0.70;100.00;100986.13;5115354;28;20475;-50
2022/01/08 04:53:30;;;;;;;9.43;2.20;;;;;;;0.74;100.00;100987.03;5115058;28;20045;-50
2022/01/08 04:55:55;;;;;;;9.43;1.75;;;;;;;0.18;100.00;100894.09;5095783;28;20497;-50
2022/01/08 04:58:21;;;;;;;14.70;2.55;;;;;;;0.13;100.00;100890.59;5115165;28;20027;-51
2022/01/08 05:00:46;;;;;;;10.45;2.78;;;;;;;0.54;100.00;100963.53;5114731;28;20534;-48
2022/01/08 05:03:12;;;;;;;6.10;2.08;;;;;;;0.18;100.00;100906.16;5114778;28;20482;-50
2022/01/08 05:05:37;;;;;;;7.00;1.60;;;;;;;0.16;100.00;100900.13;5115183;28;20059;-48
2022/01/08 05:08:02;;;;;;;6.70;2.25;;;;;;;0.16;100.00;100911.34;5114958;28;20024;-48
2022/01/08 05:10:33;;;;;;;13.98;2.53;;;;;;;-0.04;100.00;100882.66;5095731;28;20049;-50
2022/01/08 05:13:03;;;;;;;7.80;2.28;;;;;;;0.36;100.00;100958.16;5114605;28;20127;-49
2022/01/08 05:15:29;;;;;;;6.38;1.98;;;;;;;0.42;100.00;100969.44;5114679;28;20064;-50
2022/01/08 05:17:55;;;;;;;8.18;2.53;;;;;;;0.49;100.00;100966.09;5114660;28;20471;-48
2022/01/08 05:20:21;;;;;;;8.65;2.00;;;;;;;0.12;100.00;100900.97;5114383;28;20440;-48
2022/01/08 05:22:53;;;;;;;15.18;3.13;;;;;;;0.46;100.00;100952.22;5114431;28;20039;-49
2022/01/08 05:25:21;;;;;;;6.97;2.53;;;;;;;0.38;100.00;100951.28;5095946;28;20379;-48
2022/01/08 05:27:47;;;;;;;8.68;2.05;;;;;;;0.56;100.00;100982.53;5096189;28;20425;-47
2022/01/08 05:30:14;;;;;;;9.65;2.20;;;;;;;0.27;100.00;100933.03;5114166;28;20081;-51
2022/01/08 05:32:40;;;;;;;12.18;2.75;;;;;;;0.74;100.00;100994.81;5096168;28;20032;-49
2022/01/08 05:35:05;;;;;;;13.00;2.88;;;;;;;0.82;100.00;100985.38;5114258;28;20032;-48
2022/01/08 05:37:31;;;;;;;11.98;2.63;;;;;;;0.52;100.00;100937.63;5114097;28;20048;-51
2022/01/08 05:39:56;;;;;;;8.00;2.17;;;;;;;0.94;100.00;101014.88;5095716;28;20031;-50
2022/01/08 05:42:22;;;;;;;10.73;3.08;;;;;;;1.06;100.00;100995.97;5096176;28;20024;-52
2022/01/08 05:44:48;;;;;;;9.20;2.75;;;;;;;1.17;100.00;100996.91;5095868;28;20042;-52
2022/01/08 05:47:14;;;;;;;10.13;2.67;;;;;;;1.22;100.00;100995.25;5114322;28;20127;-51
2022/01/08 05:49:40;;;;;;;13.63;2.55;;;;;;;1.23;100.00;100990.91;5113714;28;20122;-52
2022/01/08 05:52:07;;;;;;;7.63;2.20;;;;;;;0.83;100.00;100922.34;5095597;28;20118;-51
2022/01/08 05:54:32;;;;;;;10.75;2.75;;;;;;;0.82;100.00;100918.00;5095172;28;20029;-53
2022/01/08 05:56:58;;;;;;;11.15;3.33;;;;;;;0.70;100.00;100911.00;5095818;28;20040;-53
2022/01/08 05:59:26;;;;;;;23.77;2.78;;;;;;;0.94;100.00;100956.97;5113870;28;20027;-54
2022/01/08 06:01:52;;;;;;;5.22;2.15;;;;;;;1.12;100.00;100983.94;5113645;28;20036;-51
2022/01/08 06:04:17;;;;;;;8.63;2.60;;;;;;;1.19;100.00;100971.03;5113524;28;20032;-50
2022/01/08 06:06:44;;;;;;;8.18;2.25;;;;;;;1.21;100.00;100977.06;5113698;28;20487;-48
2022/01/08 06:09:09;;;;;;;6.93;2.08;;;;;;;1.20;100.00;100967.59;5095534;28;20514;-47
2022/01/08 06:11:35;;;;;;;7.72;2.20;;;;;;;1.08;100.00;100968.34;5113826;28;20036;-47
2022/01/08 06:14:02;;;;;;;8.75;2.58;;;;;;;1.14;100.00;100958.88;5114183;28;20039;-48
2022/01/08 06:16:33;;;;;;;10.57;2.65;;;;;;;0.75;100.00;100898.97;5113566;28;20036;-48
2022/01/08 06:18:58;;;;;;;7.80;2.78;;;;;;;0.70;100.00;100882.50;5113223;28;20040;-49
2022/01/08 06:21:24;;;;;;;11.90;3.08;;;;;;;1.21;100.00;100971.88;5112960;28;20020;-49
2022/01/08 06:23:49;;;;;;;13.95;3.08;;;;;;;1.21;100.00;100969.28;5112916;28;20173;-49
2022/01/08 06:26:14;;;;;;;10.63;3.15;;;;;;;1.12;100.00;100968.38;5113172;28;20612;-48
2022/01/08 06:28:40;;;;;;;13.27;2.92;;;;;;;1.02;100.00;100960.53;5113452;28;20394;-48
2022/01/08 06:31:05;;;;;;;11.10;2.40;;;;;;;0.41;100.00;100869.31;5113088;28;20119;-48
2022/01/08 06:33:31;;;;;;;8.93;2.45;;;;;;;0.76;100.00;100970.63;5113156;28;20039;-48
2022/01/08 06:35:56;;;;;;;9.07;2.75;;;;;;;0.70;100.00;100961.97;5095012;28;20406;-48
2022/01/08 06:38:21;;;;;;;11.70;2.45;;;;;;;0.64;100.00;100977.44;5113047;28;20152;-51
2022/01/08 06:40:47;;;;;;;12.15;3.13;;;;;;;0.61;100.00;100970.53;5113202;28;20032;-48
2022/01/08 06:43:12;;;;;;;13.32;3.13;;;;;;;0.19;100.00;100894.97;5112976;28;20097;-49
2022/01/08 06:45:38;;;;;;;11.13;2.97;;;;;;;0.48;100.00;100933.25;5113070;28;20030;-49
2022/01/08 06:48:04;;;;;;;9.90;2.80;;;;;;;0.62;100.00;100954.09;5094686;28;20440;-48
2022/01/08 06:50:29;;;;;;;10.68;3.78;;;;;;;0.60;100.00;100948.03;5094838;28;20492;-49
2022/01/08 06:52:55;;;;;;;9.77;3.55;;;;;;;0.64;100.00;100952.41;5112889;28;20088;-48
2022/01/08 06:55:21;;;;;;;9.93;3.25;;;;;;;0.04;100.00;100833.56;5094634;28;20134;-51
2022/01/08 06:57:46;;;;;;;11.32;3.40;;;;;;;0.73;100.00;100949.03;5113136;28;20106;-52
2022/01/08 07:00:12;;;;;;;7.80;3.55;;;;;;;0.47;100.00;100877.13;5094670;28;20114;-51
2022/01/08 07:02:38;;;;;;;7.28;3.25;;;;;;;0.35;100.00;100829.56;5094673;28;20078;-51
2022/01/08 07:05:03;;;;;;;11.20;3.35;;;;;;;1.00;100.00;100938.88;5094917;28;20032;-53
2022/01/08 07:07:29;;;;;;;11.20;3.22;;;;;;;0.82;100.00;100871.34;5112604;28;20226;-48
2022/01/08 07:09:54;;;;;;;12.25;3.28;;;;;;;0.78;100.00;100849.75;5077725;28;20035;-50
2022/01/08 07:12:19;;;;;;;6.43;3.13;;;;;;;1.34;100.00;100927.06;5094363;28;20027;-47
2022/01/08 07:14:45;;;;;;;8.70;2.92;;;;;;;1.35;100.00;100919.25;5112772;28;20397;-48
2022/01/08 07:17:10;;;;;;;7.82;2.88;;;;;;;1.49;100.00;100916.78;5094499;28;20505;-53
2022/01/08 07:19:38;;;;;;;10.07;2.70;;;;;;;1.45;100.00;100889.06;5094443;28;20050;-50
2022/01/08 07:22:04;;;;;;;8.88;2.78;;;;;;;1.32;100.00;100846.63;5112542;28;20024;-48
2022/01/08 07:24:29;;;;;;;8.35;2.63;;;;;;;1.83;100.00;100929.03;5112537;28;20032;-49
2022/01/08 07:26:55;;;;;;;7.72;2.63;;;;;;;1.86;100.00;100920.41;5112878;28;20035;-49
2022/01/08 07:29:20;;;;;;;6.28;2.35;;;;;;;1.77;100.00;100897.00;5112727;28;20448;-49
2022/01/08 07:31:45;;;;;;;10.73;2.60;;;;;;;1.96;100.00;100919.56;5112782;28;20039;-49
2022/01/08 07:34:11;;;;;;;8.30;2.30;;;;;;;1.99;100.00;100914.38;5098367;28;20055;-49
2022/01/08 07:36:36;;;;;;;7.93;2.50;;;;;;;1.57;100.00;100852.81;5116391;28;20052;-51
2022/01/08 07:39:02;;;;;;;11.90;3.30;;;;;;;1.64;100.00;100849.38;5098126;28;20028;-49
2022/01/08 07:41:27;;;;;;;10.13;3.38;;;;;;;1.85;100.00;100880.59;5098169;28;20035;-50
2022/01/08 07:43:54;;;;;;;12.43;3.95;;;;;;;1.60;100.00;100827.75;5116387;28;20059;-48
2022/01/08 07:46:19;;;;;;;11.63;2.97;;;;;;;2.09;100.00;100909.25;5116413;28;20028;-49
2022/01/08 07:48:45;;;;;;;17.55;3.25;;;;;;;2.14;100.00;100920.50;5098163;28;20034;-55
2022/01/08 07:51:11;;;;;;;8.18;2.53;;;;;;;1.67;100.00;100828.63;5116424;28;20463;-48
2022/01/08 07:53:36;;;;;;;15.90;3.35;;;;;;;1.75;100.00;100845.09;5097883;28;20039;-53
2022/01/08 07:56:01;;;;;;;14.05;3.35;;;;;;;1.67;100.00;100836.41;5116801;28;20232;-50
2022/01/08 07:58:27;;;;;;;7.90;3.35;;;;;;;2.03;100.00;100895.38;5116234;28;20110;-48
2022/01/08 08:00:53;;;;;;;7.60;3.00;;;;;;;1.56;100.00;100805.25;5098083;28;20039;-51
2022/01/08 08:03:19;;;;;;;9.00;3.10;;;;;;;2.11;100.00;100898.84;5116073;28;20032;-49
2022/01/08 08:05:45;;;;;;;9.75;3.13;;;;;;;2.02;100.00;100891.03;5080965;28;20455;-49
2022/01/08 08:08:17;;;;;;;7.65;3.53;;;;;;;2.08;100.00;100896.22;5115867;28;20035;-52
2022/01/08 08:10:44;;;;;;;10.35;3.15;;;;;;;1.49;100.00;100782.72;5116264;28;20031;-50
2022/01/08 08:13:09;;;;;;;8.15;3.55;;;;;;;2.10;100.00;100860.78;5115705;28;20024;-52
2022/01/08 08:15:35;;;;;;;10.60;3.22;;;;;;;1.80;100.00;100801.88;5115801;28;20538;-49
2022/01/08 08:18:00;;;;;;;5.90;2.88;;;;;;;1.87;100.00;100798.41;5115611;28;20486;-48
2022/01/08 08:20:25;;;;;;;14.88;3.40;;;;;;;1.94;100.00;100799.28;5115495;28;20036;-48
2022/01/08 08:22:51;;;;;;;8.27;2.95;;;;;;;2.47;100.00;100874.69;5116007;28;20032;-50
2022/01/08 08:25:16;;;;;;;10.50;2.67;;;;;;;2.48;100.00;100866.03;5116037;28;20111;-50
2022/01/08 08:27:42;;;;;;;10.95;2.92;;;;;;;2.56;100.00;100900.66;5097623;28;20070;-49
2022/01/08 08:30:08;;;;;;;7.47;2.92;;;;;;;2.63;100.00;100869.47;5092488;28;20027;-48
2022/01/08 08:32:34;;;;;;;10.70;3.35;;;;;;;2.48;100.00;100827.91;5093815;28;20070;-49
2022/01/08 08:34:59;;;;;;;8.77;2.40;;;;;;;2.69;100.00;100853.03;5094238;28;20070;-48
2022/01/08 08:37:25;;;;;;;7.57;2.83;;;;;;;2.72;100.00;100847.81;5095824;28;20052;-48
2022/01/08 08:39:50;;;;;;;8.75;3.15;;;;;;;2.27;100.00;100778.56;5076786;28;20035;-50
2022/01/08 08:42:16;;;;;;;9.43;2.72;;;;;;;2.21;100.00;100756.06;5095160;28;20043;-49
2022/01/08 08:44:41;;;;;;;10.57;3.42;;;;;;;2.27;100.00;100755.19;5094075;28;20035;-50
2022/01/08 08:47:06;;;;;;;10.02;3.47;;;;;;;2.66;100.00;100833.09;5115269;28;20114;-50
2022/01/08 08:49:32;;;;;;;11.75;3.10;;;;;;;2.73;100.00;100834.84;5096901;28;20024;-52
2022/01/08 08:51:58;;;;;;;14.23;4.25;;;;;;;2.67;100.00;100821.84;5096834;28;20393;-49
2022/01/08 08:54:23;;;;;;;10.38;4.20;;;;;;;2.71;100.00;100812.31;5115113;28;20035;-49
2022/01/08 08:56:49;;;;;;;11.52;4.60;;;;;;;2.31;100.00;100740.47;5096863;28;20042;-52
2022/01/08 08:59:14;;;;;;;14.80;7.10;;;;;;;2.83;100.00;100828.75;5096878;28;20024;-51
2022/01/08 09:01:40;;;;;;;8.13;5.70;;;;;;;2.41;100.00;100760.38;5114979;28;20554;-48
2022/01/08 09:04:05;;;;;;;21.50;6.20;;;;;;;2.53;100.00;100748.25;5114894;28;20508;-48
2022/01/08 09:06:31;;;;;;;15.48;6.35;;;;;;;2.99;100.00;100814.00;5114945;28;20031;-51
2022/01/08 09:08:56;;;;;;;18.65;7.30;;;;;;;3.02;100.00;100803.59;5115032;28;20462;-49
2022/01/08 09:11:22;;;;;;;11.15;6.60;;;;;;;3.05;100.00;100806.19;5114968;28;20119;-47
2022/01/08 09:13:47;;;;;;;12.90;7.65;;;;;;;2.51;100.00;100716.19;5096482;28;20035;-50
2022/01/08 09:16:13;;;;;;;15.32;8.05;;;;;;;3.02;100.00;100793.19;5114630;28;20483;-50
2022/01/08 09:18:39;;;;;;;13.10;8.32;;;;;;;2.59;100.00;100717.06;5114616;28;20039;-48
2022/01/08 09:21:05;;;;;;;10.88;7.60;;;;;;;3.05;100.00;100780.19;5114558;28;20388;-48
2022/01/08 09:23:31;;;;;;;17.73;9.10;;;;;;;3.12;100.00;100781.03;5114967;28;20063;-48
2022/01/08 09:25:57;;;;;;;16.73;8.55;;;;;;;2.65;100.00;100701.44;5096539;28;20032;-53
2022/01/08 09:28:23;;;;;;;18.77;8.93;;;;;;;2.75;100.00;100700.53;5112059;28;20391;-50
2022/01/08 09:30:48;;;;;;;18.70;8.65;;;;;;;3.15;100.00;100773.22;5080598;28;20038;-48
2022/01/08 09:33:14;;;;;;;18.30;9.30;;;;;;;3.06;100.00;100742.91;5093721;28;20387;-51
2022/01/08 09:35:39;;;;;;;17.25;9.65;;;;;;;3.20;100.00;100755.88;5075583;28;20127;-48
2022/01/08 09:38:05;;;;;;;12.82;9.65;;;;;;;2.79;100.00;100676.28;5076003;28;20127;-50
2022/01/08 09:40:30;;;;;;;15.43;9.45;;;;;;;3.25;100.00;100751.50;5113821;28;20035;-51
2022/01/08 09:42:55;;;;;;;15.38;10.18;;;;;;;3.26;100.00;100748.91;5095933;28;20148;-47
2022/01/08 09:45:21;;;;;;;17.10;10.32;;;;;;;3.23;100.00;100727.25;5101961;28;20047;-49
2022/01/08 09:47:46;;;;;;;17.60;11.15;;;;;;;3.05;100.00;100685.69;5108652;28;20031;-53
2022/01/08 09:50:12;;;;;;;18.02;10.80;;;;;;;2.87;100.00;100651.97;5094573;28;20031;-49
2022/01/08 09:52:37;;;;;;;17.42;10.50;;;;;;;3.37;100.00;100735.84;5093702;28;20044;-50
2022/01/08 09:55:04;;;;;;;14.85;9.90;;;;;;;2.92;100.00;100642.44;5075280;28;20028;-48
2022/01/08 09:57:30;;;;;;;17.08;10.48;;;;;;;3.39;100.00;100721.94;5093620;28;20086;-50
2022/01/08 09:59:55;;;;;;;17.17;11.00;;;;;;;3.03;100.00;100651.06;5108891;28;20483;-49
2022/01/08 10:02:22;;;;;;;15.43;10.00;;;;;;;3.48;100.00;100712.34;5095485;28;20111;-48
2022/01/08 10:04:49;;;;;;;16.77;10.60;;;;;;;3.03;100.00;100625.06;5095429;28;20039;-48
2022/01/08 10:07:26;;;;;;;15.85;10.32;;;;;;;3.56;100.00;100703.63;5095811;28;20119;-47
2022/01/08 10:10:11;;;;;;;16.70;10.07;;;;;;;3.56;100.00;100701.03;5079676;28;20028;-49
2022/01/08 10:13:03;;;;;;;15.85;10.00;;;;;;;3.62;100.00;100698.38;5093221;28;20123;-51
2022/01/08 10:18:27;;;;;;;15.18;10.10;;;;;;;3.70;100.00;100677.53;5110879;28;20047;-48
2022/01/08 10:20:55;;;;;;;12.95;9.48;;;;;;;3.74;100.00;100643.63;5074948;28;20387;-52
2022/01/08 10:23:22;;;;;;;16.40;9.80;;;;;;;3.86;100.00;100640.06;5075974;28;20479;-50
2022/01/08 10:26:04;;;;;;;15.95;8.85;;;;;;;3.94;100.00;100646.94;5096330;28;20032;-49
2022/01/08 10:28:36;;;;;;;13.52;8.55;;;;;;;4.00;100.00;100625.19;5092860;28;20036;-50
2022/01/08 10:31:25;;;;;;;13.55;8.35;;;;;;;4.04;100.00;100615.63;5091310;28;20036;-49
2022/01/08 10:34:01;;;;;;;14.95;8.60;;;;;;;4.06;100.00;100630.34;5081591;28;20564;-48
2022/01/08 10:36:30;;;;;;;14.98;8.30;;;;;;;4.11;100.00;100631.19;5092088;28;20048;-49
2022/01/08 10:38:57;;;;;;;14.40;8.35;;;;;;;3.53;100.00;100526.72;5074477;28;20039;-50
2022/01/08 10:41:25;;;;;;;11.52;7.68;;;;;;;3.78;100.00;100543.81;5074412;28;20115;-51
2022/01/08 10:44:05;;;;;;;12.48;6.70;;;;;;;4.26;100.00;100602.34;5074272;28;20514;-50
2022/01/08 10:46:31;;;;;;;11.02;7.50;;;;;;;3.90;100.00;100522.00;5110975;28;20475;-51
2022/01/08 10:48:56;;;;;;;10.65;6.93;;;;;;;4.34;100.00;100584.06;5112401;28;20039;-49
2022/01/08 10:51:26;;;;;;;12.55;5.90;;;;;;;4.35;100.00;100575.38;5102437;28;20032;-48
2022/01/08 10:53:54;;;;;;;10.00;5.40;;;;;;;4.56;100.00;100582.91;5112393;28;20386;-49
2022/01/08 10:56:28;;;;;;;10.60;5.55;;;;;;;4.51;100.00;100545.63;5094349;28;20027;-50
2022/01/08 10:58:59;;;;;;;9.52;5.00;;;;;;;4.28;100.00;100521.59;5112171;28;20023;-49
2022/01/08 11:01:36;;;;;;;8.63;5.18;;;;;;;4.54;100.00;100537.75;5094060;28;20043;-48
2022/01/08 11:04:01;;;;;;;8.13;5.10;;;;;;;4.41;100.00;100491.88;5097474;28;20028;-48
2022/01/08 11:06:26;;;;;;;10.80;5.07;;;;;;;4.82;100.00;100540.84;5093561;28;20116;-48
2022/01/08 11:09:02;;;;;;;8.75;4.50;;;;;;;4.76;100.00;100510.50;5101884;28;20036;-50
2022/01/08 11:11:31;;;;;;;9.15;3.85;;;;;;;4.86;100.00;100532.13;5091609;28;20043;-47
2022/01/08 11:14:04;;;;;;;6.28;3.40;;;;;;;4.13;100.00;100392.38;5091157;28;20032;-49
2022/01/08 11:16:31;;;;;;;6.63;3.50;;;;;;;4.84;100.00;100500.84;5105101;28;20035;-49
2022/01/08 11:18:58;;;;;;;8.43;3.95;;;;;;;4.87;100.00;100498.22;5108893;28;20066;-48
2022/01/08 11:21:27;;;;;;;7.40;3.58;;;;;;;4.92;100.00;100501.59;5110173;28;20053;-52
2022/01/08 11:23:53;;;;;;;7.55;3.17;;;;;;;5.01;100.00;100483.22;5075640;28;20543;-49
2022/01/08 11:26:19;;;;;;;8.52;3.17;;;;;;;5.10;100.00;100501.34;5091897;28;20036;-50
2022/01/08 11:28:47;;;;;;;9.20;3.00;;;;;;;5.11;100.00;100482.16;5110317;28;20463;-51
2022/01/08 11:31:15;;;;;;;9.65;3.00;;;;;;;5.06;100.00;100470.94;5093867;28;20027;-50
2022/01/08 11:33:44;;;;;;;5.28;3.13;;;;;;;5.08;100.00;100473.50;5111180;28;20477;-49
2022/01/08 11:36:11;;;;;;;8.43;2.97;;;;;;;4.59;100.00;100392.59;5094430;28;20111;-49
2022/01/08 11:38:37;;;;;;;6.97;3.40;;;;;;;5.00;100.00;100457.13;5112106;28;20114;-52
2022/01/08 11:41:02;;;;;;;6.40;2.72;;;;;;;4.71;100.00;100399.34;5112251;28;20078;-49